LIPH

Treviso-Sant'Angelo Airport

Treviso, Italy
TAF LIPH 141700Z 1418/1518 04010KT 9999 FEW030 BECMG 1420/1422 VRB05KT
Issued Valid From Valid To
Dec-14 @ 17:00 UTC
(5 hours ago)
Dec-14 @ 18:00 UTC
(4 hours ago)
Dec-15 @ 18:00 UTC
(in 20 hours)
Expired Click to View Dec-14 @ 18:00 to Dec-14 @ 20:00
TAF LIPH 141700Z 1418/1518 04010KT 9999 FEW030
Wind Visibility Clouds
40° at 10 knots 10,000+ meters
  • Few at 3,000' AGL
Becoming Dec-14 @ 20:00 to Dec-15 @ 18:00
BECMG 1420/1422 VRB05KT
Wind Visibility Clouds
Variable at 5 knots 10,000+ meters
  • Few at 3,000' AGL
TAF LIPH 141700Z 1418/1518 04010KT 9999 FEW030 BECMG 1420/1422 VRB05KT
Issued Dec-14 @ 17:00 UTC
(5 hours ago)
Valid From Dec-14 @ 18:00 UTC
(4 hours ago)
Valid To Dec-15 @ 18:00 UTC
(in 20 hours)
Dec-14 @ 18:00 - Dec-14 @ 20:00
Wind Visibility
40° at 10 knots 10,000+ meters
Clouds
  • Few at 3,000' AGL
Becoming Dec-14 @ 20:00 - Dec-15 @ 18:00
Wind Visibility
Variable at 5 knots 10,000+ meters
Clouds
  • Few at 3,000' AGL